Weather History for Sheldon, IA

Change the Weather History Date:

Wednesday, April 10, 2013

  Actual Average Record
Temperature  
Mean Temperature 32 °F -  
Max Temperature 33 °F 56 °F 84 °F (1977)
Min Temperature 32 °F 31 °F 17 °F (1973)
Degree Days  
Heating Degree Days 32    
Moisture  
Dew Point 32 °F    
Average Humidity 100    
Maximum Humidity 100    
Minimum Humidity 100    
Precipitation  
Precipitation 0.09 in - - ()
Sea Level Pressure  
Sea Level Pressure 29.93 in    
Wind  
Wind Speed 19 mph (NE)    
Max Wind Speed 34 mph    
Max Gust Speed 43 mph    
Visibility 5 miles    
Events Rain , Snow    
Averages and records for this station are not official NWS values.
T = Trace of Precipitation, MM = Missing Value Source: NWS Daily Summary

Daily Weather History Graph

Daily Weather History Graph

Search for Another Location

Airport:

Trip Planner

Search our weather history database for the weather conditions in past years. The results will help you decide how hot, cold, wet, or windy it might be!

Date:

Astronomy

Apr. 10, 2013 Rise Set
Actual Time 6:49 AM CDT 8:00 PM CDT
Civil Twilight 6:19 AM CDT 8:30 PM CDT
Nautical Twilight 5:44 AM CDT 9:05 PM CDT
Astronomical Twilight 5:07 AM CDT 9:42 PM CDT
Moon 6:45 AM CDT (4/10) 8:39 PM CDT (4/10)
Length of Visible Light 14h 10m
Length of Day
13h 11m
New Moon, 0% of the Moon is Illuminated
Apr 10
New Moon
Apr 18
First Quarter
Apr 25
Full
May 2
Last Quarter
May 9
New

Hourly Weather History & Observations

Time (CDT) Temp. Windchill Dew Point Humidity Pressure Visibility Wind Dir Wind Speed Gust Speed Precip Events Conditions
12:15 AM 33.8 °F 21.9 °F 33.8 °F 100% 29.99 in 10.0 mi NNE 21.9 mph - N/A   Overcast
12:35 AM 33.8 °F 21.9 °F 33.8 °F 100% 29.95 in 10.0 mi NNE 21.9 mph 31.1 mph N/A   Overcast
12:55 AM 33.8 °F 22.5 °F 33.8 °F 100% 29.97 in 10.0 mi NNE 19.6 mph 28.8 mph 0.01 in   Overcast
1:15 AM 33.8 °F 21.9 °F 33.8 °F 100% 29.98 in 10.0 mi NNE 21.9 mph - N/A   Overcast
1:35 AM 33.8 °F 23.2 °F 33.8 °F 100% 30.01 in - NNE 17.3 mph 24.2 mph N/A   Overcast
1:55 AM 33.8 °F 22.5 °F 33.8 °F 100% 30.01 in 10.0 mi NNE 19.6 mph - 0.01 in   Overcast
2:15 AM 33.8 °F 21.3 °F 33.8 °F 100% 30.00 in 8.0 mi NNE 24.2 mph 31.1 mph N/A   Overcast
2:35 AM 32.0 °F 19.2 °F 32.0 °F 100% 29.99 in 6.0 mi NE 23.0 mph - N/A   Overcast
2:55 AM 32.0 °F 19.2 °F 32.0 °F 100% 29.98 in 2.0 mi NE 23.0 mph 31.1 mph N/A   Overcast
3:15 AM 32.0 °F 19.2 °F 32.0 °F 100% 29.96 in 2.5 mi NNE 23.0 mph 32.2 mph N/A   Overcast
3:35 AM 32.0 °F 18.6 °F 32.0 °F 100% 29.94 in 9.0 mi NE 25.3 mph 36.8 mph N/A   Overcast
3:55 AM 32.0 °F 16.7 °F 32.0 °F 100% 29.88 in 9.0 mi NE 34.5 mph 42.6 mph N/A   Overcast
4:15 AM 32.0 °F 18.9 °F 32.0 °F 100% 29.95 in 4.0 mi NE 24.2 mph 35.7 mph N/A   Overcast
4:35 AM 32.0 °F 17.2 °F 32.0 °F 100% 29.95 in 5.0 mi NE 32.2 mph - N/A   Overcast
4:55 AM 32.0 °F 18.4 °F 32.0 °F 100% 29.93 in 7.0 mi NE 26.5 mph 35.7 mph N/A   Overcast
5:15 AM 32.0 °F 19.8 °F 32.0 °F 100% 29.96 in 10.0 mi NE 20.7 mph 29.9 mph N/A   Overcast
5:35 AM 32.0 °F 19.5 °F 32.0 °F 100% 29.97 in 3.0 mi NE 21.9 mph 27.6 mph N/A   Light Drizzle
5:55 AM 32.0 °F 20.1 °F 32.0 °F 100% 29.96 in 1.5 mi NE 19.6 mph 29.9 mph 0.01 in   Light Drizzle
6:15 AM 32.0 °F 18.9 °F 32.0 °F 100% 29.92 in 2.0 mi NE 24.2 mph 33.4 mph N/A   Overcast
6:35 AM 32.0 °F 18.9 °F 32.0 °F 100% 29.91 in 2.5 mi NE 24.2 mph 34.5 mph N/A   Overcast
6:55 AM 32.0 °F 18.9 °F 32.0 °F 100% 29.93 in 9.0 mi NE 24.2 mph - N/A   Overcast
7:15 AM 32.0 °F 20.5 °F 32.0 °F 100% 29.96 in 10.0 mi NE 18.4 mph - N/A   Overcast
7:35 AM 32.0 °F 20.8 °F 32.0 °F 100% 29.97 in 3.0 mi NE 17.3 mph 24.2 mph N/A   Overcast
7:55 AM 32.0 °F 20.8 °F 32.0 °F 100% 29.96 in 1.0 mi NE 17.3 mph - N/A   Overcast
8:15 AM 32.0 °F 18.9 °F 32.0 °F 100% 29.91 in 1.0 mi NE 24.2 mph - N/A   Overcast
8:35 AM 32.0 °F 18.4 °F 32.0 °F 100% 29.91 in 4.0 mi ENE 26.5 mph 35.7 mph N/A   Overcast
8:55 AM 32.0 °F 20.5 °F 32.0 °F 100% 29.95 in 4.0 mi East 18.4 mph 28.8 mph N/A   Overcast
9:15 AM 32.0 °F 20.8 °F 32.0 °F 100% 29.97 in 5.0 mi ENE 17.3 mph 25.3 mph N/A   Overcast
9:35 AM 32.0 °F 20.8 °F 32.0 °F 100% 29.97 in 7.0 mi ENE 17.3 mph - N/A   Overcast
9:55 AM 32.0 °F 20.8 °F 32.0 °F 100% 29.95 in 10.0 mi NE 17.3 mph 23.0 mph N/A   Overcast
10:15 AM 32.0 °F 24.8 °F 32.0 °F 100% 30.00 in 4.0 mi NE 8.1 mph 15.0 mph N/A   Overcast
10:35 AM 32.0 °F 23.6 °F 32.0 °F 100% 29.98 in 0.5 mi NNE 10.4 mph - N/A   Overcast
10:55 AM 32.0 °F 22.5 °F 32.0 °F 100% 29.97 in 0.8 mi NNE 12.7 mph - N/A   Overcast
11:15 AM 32.0 °F 22.1 °F 32.0 °F 100% 29.98 in 1.0 mi NNE 13.8 mph - N/A   Overcast
11:35 AM 32.0 °F 22.5 °F 32.0 °F 100% 29.99 in 1.2 mi NNE 12.7 mph - N/A   Light Drizzle
12:15 PM 32.0 °F 21.6 °F 32.0 °F 100% 29.98 in 1.5 mi NNE 15.0 mph - N/A   Overcast
12:35 PM 32.0 °F 21.6 °F 32.0 °F 100% 29.99 in 4.0 mi NE 15.0 mph - N/A   Mostly Cloudy
12:55 PM 32.0 °F 21.6 °F 32.0 °F 100% 29.99 in 9.0 mi NE 15.0 mph - N/A   Overcast
1:15 PM 32.0 °F 23.0 °F 32.0 °F 100% 30.00 in 10.0 mi NE 11.5 mph - N/A   Overcast
1:35 PM 32.0 °F 21.6 °F 32.0 °F 100% 29.99 in 10.0 mi NE 15.0 mph - N/A   Overcast
1:55 PM 32.0 °F 22.5 °F 32.0 °F 100% 29.99 in 3.0 mi NE 12.7 mph - N/A   Overcast
2:15 PM 32.0 °F 22.1 °F 32.0 °F 100% 29.97 in 2.0 mi NNE 13.8 mph - N/A   Overcast
2:35 PM 32.0 °F 23.0 °F 32.0 °F 100% 29.96 in 2.0 mi NNE 11.5 mph - N/A   Mostly Cloudy
2:55 PM 32.0 °F 21.2 °F 32.0 °F 100% 29.95 in 3.0 mi NE 16.1 mph - N/A   Mostly Cloudy
3:15 PM 32.0 °F 22.5 °F 32.0 °F 100% 29.96 in 1.5 mi NE 12.7 mph - N/A Rain Light Rain
3:35 PM 32.0 °F 20.5 °F 32.0 °F 100% 29.94 in 2.0 mi NE 18.4 mph - N/A   Mostly Cloudy
3:55 PM 32.0 °F 20.8 °F 32.0 °F 100% 29.94 in 1.5 mi NE 17.3 mph - N/A   Light Drizzle
4:15 PM 32.0 °F 20.8 °F 32.0 °F 100% 29.93 in 2.0 mi NE 17.3 mph - N/A   Light Drizzle
4:35 PM 32.0 °F 21.6 °F 32.0 °F 100% 29.92 in 1.5 mi NE 15.0 mph - N/A   Overcast
4:55 PM 32.0 °F 20.1 °F 32.0 °F 100% 29.90 in 2.0 mi NE 19.6 mph - N/A   Overcast
5:15 PM 32.0 °F 20.1 °F 32.0 °F 100% 29.89 in 3.0 mi NE 19.6 mph - N/A Rain Light Rain
5:35 PM 32.0 °F 20.8 °F 32.0 °F 100% 29.90 in 7.0 mi NE 17.3 mph - N/A   Overcast
5:55 PM 32.0 °F 20.5 °F 32.0 °F 100% 29.89 in 10.0 mi NE 18.4 mph - N/A   Overcast
6:15 PM 32.0 °F 19.5 °F 32.0 °F 100% 29.87 in 10.0 mi NE 21.9 mph - N/A   Overcast
6:35 PM 32.0 °F 20.5 °F 32.0 °F 100% 29.86 in 10.0 mi ENE 18.4 mph - N/A   Overcast
6:55 PM 32.0 °F 21.2 °F 32.0 °F 100% 29.85 in 10.0 mi NE 16.1 mph 24.2 mph N/A   Overcast
7:15 PM 32.0 °F 21.2 °F 32.0 °F 100% 29.84 in 10.0 mi ENE 16.1 mph 23.0 mph N/A   Overcast
7:35 PM 32.0 °F 20.8 °F 32.0 °F 100% 29.82 in 10.0 mi NE 17.3 mph - N/A   Overcast
7:55 PM 32.0 °F 21.6 °F 32.0 °F 100% 29.84 in 10.0 mi ENE 15.0 mph 20.7 mph N/A   Overcast
8:15 PM 32.0 °F 23.0 °F 32.0 °F 100% 29.84 in 10.0 mi NE 11.5 mph - N/A   Overcast
8:35 PM 32.0 °F 26.4 °F 32.0 °F 100% 29.85 in 5.0 mi ENE 5.8 mph 20.7 mph N/A Rain Light Rain
8:55 PM 32.0 °F 22.5 °F 32.0 °F 100% 29.82 in 3.0 mi ENE 12.7 mph - N/A   Light Drizzle
9:15 PM 32.0 °F 22.1 °F 32.0 °F 100% 29.82 in 1.8 mi NE 13.8 mph - N/A   Overcast
9:55 PM 32.0 °F 24.2 °F 32.0 °F 100% 29.82 in 1.2 mi ENE 9.2 mph 15.0 mph N/A   Overcast
10:15 PM 32.0 °F 25.6 °F 32.0 °F 100% 29.82 in 1.8 mi ENE 6.9 mph - N/A Rain Light Rain
10:35 PM 32.0 °F 24.8 °F 32.0 °F 100% 29.82 in 3.0 mi ENE 8.1 mph - N/A   Overcast
10:55 PM 32.0 °F 26.4 °F 32.0 °F 100% 29.82 in 1.8 mi ENE 5.8 mph - 0.02 in Snow Light Snow
11:15 PM 32.0 °F 26.4 °F 32.0 °F 100% 29.80 in 1.2 mi NE 5.8 mph - N/A Snow Light Snow
11:35 PM 32.0 °F 27.5 °F 32.0 °F 100% 29.79 in 1.0 mi NNE 4.6 mph - N/A Snow Light Snow
11:55 PM 32.0 °F 27.5 °F 32.0 °F 100% 29.78 in 1.8 mi North 4.6 mph - 0.04 in Snow Light Snow